Accueil
METAR-TAF:

METAR-TAF

Aéroports :

Aéroport international de Coni

Coni, Italie

latitude: 44-32-47N, longitude: 007-37-20E, altitude: 386 m

Observation

Le bulletin a été fait il y a 36 minutes, à 03:20 UTC
Vent 1 kt de direction variable
Température 6°C
Humidité 87%
Pression 1020 hPa
Visibilité 10 km ou plus

METAR: LIMZ 300320Z AUTO VRB01KT 9999 OVC034/// 06/04 Q1020

Heure: 04:56 (03:56 UTC)

Prévision

Le bulletin a été fait il y a 4 heures et 56 minutes, à 23:00 UTC
Prévision valable du 30 à 00 UTC au 30 à 24 UTC
Vent 3 kt de direction variable
Visibilité: 4000 m
Nuages fragmentés à une hauteur de 1000 ft
brume
Evoluant progressivement
du 30 à 02 UTC au 30 à 04 UTC
Visibilité: 2000 m
Evoluant progressivement
du 30 à 08 UTC au 30 à 10 UTC
Visibilité: 6000 m

TAF: LIMZ 292300Z 3000/3024 VRB03KT 4000 BR BKN010 BECMG 3002/3004 2000 BECMG 3008/3010 6000

Observations et prévisions météorologiques de plus de 4000 aéroports (messages METAR et TAF).

Les stations disponibles sont représentées par des disques jaunes et rouges sur la carte.

Passer la souris dessus pour voir le nom de la station.

Cliquer dessus pour voir les observations et prévisions météorologiques.

Pour changer de carte: cliquez sur les boutons verts avec une croix noire pour zoomer, sur le bouton vert avec un tiret pour effectuer un zoom arrière, ou sur les flèches vertes pour les cartes adjacentes.


METAR-TAF: